createdAt,value
2022-11-12T00:00:42.190Z,16.70
2022-11-12T00:02:32.687Z,12.90
2022-11-12T00:04:23.153Z,14.13
2022-11-12T00:06:13.782Z,11.60
2022-11-12T00:08:04.631Z,14.13
2022-11-12T00:09:55.029Z,14.40
2022-11-12T00:11:45.625Z,11.50
2022-11-12T00:13:36.045Z,16.43
2022-11-12T00:15:26.777Z,17.73
2022-11-12T00:17:16.896Z,12.83
2022-11-12T00:19:07.182Z,14.07
2022-11-12T00:20:57.488Z,16.93
2022-11-12T00:22:47.821Z,13.70
2022-11-12T00:24:38.254Z,13.10
2022-11-12T00:26:28.523Z,12.57
2022-11-12T00:28:18.929Z,15.73
2022-11-12T00:30:09.941Z,15.73
2022-11-12T00:32:00.245Z,12.53
2022-11-12T00:33:50.798Z,12.80
2022-11-12T00:35:41.278Z,12.67
2022-11-12T00:37:31.796Z,15.97
2022-11-12T00:39:22.345Z,16.07
2022-11-12T00:41:12.635Z,12.83
2022-11-12T00:43:02.939Z,13.83
2022-11-12T00:44:53.446Z,14.63
2022-11-12T00:46:43.934Z,19.63
2022-11-12T00:48:34.235Z,19.00
2022-11-12T00:50:25.470Z,16.67
2022-11-12T00:52:15.583Z,15.80
2022-11-12T00:54:06.350Z,14.60
2022-11-12T00:56:04.679Z,11.07
2022-11-12T00:57:57.542Z,14.83
2022-11-12T00:59:47.771Z,16.20
2022-11-12T01:01:39.291Z,17.67
2022-11-12T01:03:29.767Z,14.20
2022-11-12T01:05:20.465Z,14.73
2022-11-12T01:07:10.683Z,13.77
2022-11-12T01:09:01.202Z,13.13
2022-11-12T01:10:51.642Z,15.20
2022-11-12T01:12:42.007Z,12.40
2022-11-12T01:14:32.462Z,13.73
2022-11-12T01:16:25.317Z,14.07
2022-11-12T01:18:15.654Z,13.67
2022-11-12T01:20:06.687Z,13.23
2022-11-12T01:21:57.126Z,16.70
2022-11-12T01:23:47.676Z,13.10
2022-11-12T01:25:38.511Z,11.63
2022-11-12T01:27:28.678Z,13.97
2022-11-12T01:29:18.922Z,14.10
2022-11-12T01:31:16.737Z,15.33
2022-11-12T01:33:06.882Z,15.03
2022-11-12T01:34:57.100Z,14.20
2022-11-12T01:36:47.554Z,12.17
2022-11-12T01:38:39.610Z,14.63
2022-11-12T01:40:29.904Z,12.40
2022-11-12T01:42:20.252Z,18.00
2022-11-12T01:44:17.589Z,15.00
2022-11-12T01:46:34.773Z,13.70
2022-11-12T01:48:37.301Z,14.60
2022-11-12T01:50:44.201Z,13.60
2022-11-12T01:52:48.099Z,15.83
2022-11-12T01:54:39.868Z,14.00
2022-11-12T01:56:31.365Z,15.00
2022-11-12T01:58:25.292Z,12.00
2022-11-12T02:00:16.773Z,13.80
2022-11-12T02:02:06.929Z,13.47
2022-11-12T02:03:57.589Z,14.23
2022-11-12T02:05:51.269Z,17.10
2022-11-12T02:07:43.428Z,19.60
2022-11-12T02:09:34.673Z,15.50
2022-11-12T02:11:25.042Z,13.67
2022-11-12T02:13:34.381Z,13.20
2022-11-12T02:15:26.127Z,12.97
2022-11-12T02:17:16.422Z,16.43
2022-11-12T02:19:10.632Z,11.90
2022-11-12T02:21:05.226Z,12.00
2022-11-12T02:22:55.185Z,11.80
2022-11-12T02:24:45.741Z,10.60
2022-11-12T02:26:40.365Z,10.13
2022-11-12T02:28:32.783Z,13.33
2022-11-12T02:30:41.711Z,12.43
2022-11-12T02:32:32.028Z,10.43
2022-11-12T02:34:22.595Z,9.60
2022-11-12T02:36:12.924Z,12.73
2022-11-12T02:38:04.497Z,12.30
2022-11-12T02:39:54.898Z,8.60
2022-11-12T02:41:45.247Z,7.80
2022-11-12T02:43:35.624Z,9.97
2022-11-12T02:45:27.096Z,11.23
2022-11-12T02:47:17.430Z,9.20
2022-11-12T02:49:07.848Z,10.50
2022-11-12T02:50:58.201Z,11.40
2022-11-12T02:52:48.575Z,9.27
2022-11-12T02:54:38.904Z,9.67
2022-11-12T02:56:29.208Z,10.10
2022-11-12T02:58:22.435Z,8.80
2022-11-12T03:00:13.961Z,10.37
2022-11-12T03:02:04.273Z,15.37
2022-11-12T03:03:54.550Z,11.90
2022-11-12T03:05:46.339Z,9.90
2022-11-12T03:07:36.794Z,11.43
2022-11-12T03:09:27.105Z,9.10
2022-11-12T03:11:17.899Z,9.17
2022-11-12T03:13:08.244Z,13.93
2022-11-12T03:14:58.795Z,9.63
2022-11-12T03:16:49.278Z,7.67
2022-11-12T03:18:39.930Z,10.93
2022-11-12T03:20:30.250Z,10.90
2022-11-12T03:22:20.747Z,9.97
2022-11-12T03:24:11.035Z,10.27
2022-11-12T03:26:05.007Z,10.50
2022-11-12T03:28:10.315Z,9.57
2022-11-12T03:30:00.543Z,9.77
2022-11-12T03:31:50.863Z,10.43
2022-11-12T03:33:41.345Z,10.43
2022-11-12T03:35:32.150Z,12.33
2022-11-12T03:37:22.206Z,10.70
2022-11-12T03:39:12.587Z,8.63
2022-11-12T03:41:02.871Z,7.17
2022-11-12T03:42:53.571Z,10.07
2022-11-12T03:44:43.687Z,10.63
2022-11-12T03:46:34.040Z,7.80
2022-11-12T03:48:24.923Z,7.10
2022-11-12T03:50:17.435Z,10.13
2022-11-12T03:52:07.713Z,7.03
2022-11-12T03:53:58.149Z,14.30
2022-11-12T03:55:48.511Z,9.40
2022-11-12T03:57:38.877Z,8.17
2022-11-12T03:59:29.479Z,8.97
2022-11-12T04:01:19.837Z,8.10
2022-11-12T04:03:10.323Z,10.97
2022-11-12T04:05:19.274Z,6.33
2022-11-12T04:07:28.136Z,18.60
2022-11-12T04:09:18.485Z,8.73
2022-11-12T04:11:12.958Z,8.30
2022-11-12T04:13:21.828Z,6.47
2022-11-12T04:15:12.162Z,8.87
2022-11-12T04:17:21.073Z,7.70
2022-11-12T04:19:31.407Z,9.17
2022-11-12T04:21:42.874Z,7.13
2022-11-12T04:23:33.314Z,8.20
2022-11-12T04:25:42.057Z,7.47
2022-11-12T04:27:34.262Z,7.27
2022-11-12T04:29:42.839Z,8.53
2022-11-12T04:31:33.441Z,8.57
2022-11-12T04:33:24.033Z,6.47
2022-11-12T04:35:14.911Z,10.07
2022-11-12T04:37:06.320Z,7.77
2022-11-12T04:38:56.791Z,6.53
2022-11-12T04:41:07.008Z,7.20
2022-11-12T04:43:15.631Z,7.60
2022-11-12T04:45:08.737Z,8.33
2022-11-12T04:47:00.030Z,8.30
2022-11-12T04:48:50.554Z,11.13
2022-11-12T04:50:42.306Z,6.20
2022-11-12T04:52:32.702Z,7.27
2022-11-12T04:54:23.028Z,7.53
2022-11-12T04:56:13.301Z,9.40
2022-11-12T04:58:04.497Z,7.03
2022-11-12T04:59:54.993Z,7.63
2022-11-12T05:01:45.571Z,7.17
2022-11-12T05:03:35.957Z,8.67
2022-11-12T05:05:29.796Z,10.63
2022-11-12T05:07:23.698Z,8.53
2022-11-12T05:09:16.680Z,7.80
2022-11-12T05:11:11.653Z,10.23
2022-11-12T05:13:02.982Z,9.70
2022-11-12T05:14:53.474Z,5.33
2022-11-12T05:16:44.482Z,12.70
2022-11-12T05:18:34.692Z,12.07
2022-11-12T05:20:25.123Z,7.53
2022-11-12T05:22:40.294Z,7.83
2022-11-12T05:24:41.155Z,6.87
2022-11-12T05:26:32.093Z,8.93
2022-11-12T05:28:22.365Z,8.20
2022-11-12T05:30:13.332Z,6.30
2022-11-12T05:32:04.760Z,6.23
2022-11-12T05:33:55.022Z,8.70
2022-11-12T05:35:45.370Z,8.20
2022-11-12T05:37:35.594Z,8.60
2022-11-12T05:39:25.978Z,7.20
2022-11-12T05:41:20.160Z,6.33
2022-11-12T05:43:10.729Z,6.40
2022-11-12T05:45:01.128Z,5.90
2022-11-12T05:46:51.606Z,7.73
2022-11-12T05:48:42.082Z,5.80
2022-11-12T05:50:39.792Z,8.57
2022-11-12T05:52:41.918Z,7.03
2022-11-12T05:54:32.240Z,7.30
2022-11-12T05:56:22.590Z,7.90
2022-11-12T05:58:12.990Z,7.63
2022-11-12T06:00:03.903Z,10.10
2022-11-12T06:01:54.802Z,5.60
2022-11-12T06:03:45.093Z,7.43
2022-11-12T06:05:36.005Z,6.77
2022-11-12T06:07:26.550Z,6.77
2022-11-12T06:09:17.083Z,7.37
2022-11-12T06:11:07.538Z,6.47
2022-11-12T06:12:58.034Z,8.70
2022-11-12T06:14:48.430Z,7.60
2022-11-12T06:16:38.838Z,6.67
2022-11-12T06:18:29.398Z,7.53
2022-11-12T06:20:20.112Z,6.60
2022-11-12T06:22:10.159Z,7.97
2022-11-12T06:24:00.676Z,6.93
2022-11-12T06:25:50.718Z,6.10
2022-11-12T06:27:41.579Z,8.10
2022-11-12T06:29:31.810Z,6.83
2022-11-12T06:31:22.778Z,7.30
2022-11-12T06:33:13.200Z,5.97
2022-11-12T06:35:04.285Z,6.47
2022-11-12T06:36:54.703Z,9.70
2022-11-12T06:38:45.678Z,6.50
2022-11-12T06:40:35.905Z,9.53
2022-11-12T06:42:26.394Z,6.07
2022-11-12T06:44:21.921Z,9.03
2022-11-12T06:46:17.145Z,11.37
2022-11-12T06:48:07.548Z,7.87
2022-11-12T06:49:57.940Z,7.73
2022-11-12T06:51:51.130Z,7.40
2022-11-12T06:53:41.146Z,8.73
2022-11-12T06:55:31.784Z,6.97
2022-11-12T06:57:21.883Z,8.20
2022-11-12T06:59:12.389Z,6.47
2022-11-12T07:01:14.112Z,6.10
2022-11-12T07:03:08.624Z,7.90
2022-11-12T07:04:59.080Z,6.80
2022-11-12T07:06:49.595Z,6.90
2022-11-12T07:08:40.610Z,7.67
2022-11-12T07:10:30.879Z,7.73
2022-11-12T07:12:20.922Z,8.90
2022-11-12T07:14:11.594Z,9.83
2022-11-12T07:16:02.383Z,6.47
2022-11-12T07:17:52.606Z,7.50
2022-11-12T07:19:42.939Z,6.57
2022-11-12T07:21:33.354Z,9.17
2022-11-12T07:23:23.718Z,14.70
2022-11-12T07:25:14.469Z,8.73
2022-11-12T07:27:05.210Z,8.30
2022-11-12T07:28:58.347Z,9.50
2022-11-12T07:30:55.272Z,8.87
2022-11-12T07:32:50.840Z,8.40
2022-11-12T07:34:41.938Z,8.13
2022-11-12T07:36:32.220Z,7.40
2022-11-12T07:38:22.674Z,7.00
2022-11-12T07:40:13.279Z,10.47
2022-11-12T07:42:03.872Z,12.00
2022-11-12T07:43:54.630Z,10.80
2022-11-12T07:45:44.669Z,7.53
2022-11-12T07:47:35.007Z,10.97
2022-11-12T07:49:25.495Z,9.50
2022-11-12T07:51:22.082Z,9.40
2022-11-12T07:53:12.540Z,9.83
2022-11-12T07:55:02.940Z,7.90
2022-11-12T07:56:53.527Z,8.80
2022-11-12T07:58:44.571Z,10.80
2022-11-12T08:00:34.504Z,9.57
2022-11-12T08:02:24.787Z,9.80
2022-11-12T08:04:15.191Z,8.03
2022-11-12T08:06:05.778Z,8.53
2022-11-12T08:07:56.959Z,7.63
2022-11-12T08:09:47.384Z,8.67
2022-11-12T08:11:37.954Z,7.97
2022-11-12T08:13:28.559Z,10.43
2022-11-12T08:15:18.847Z,8.60
2022-11-12T08:17:09.163Z,10.33
2022-11-12T08:19:00.738Z,11.17
2022-11-12T08:20:51.051Z,8.87
2022-11-12T08:22:45.051Z,10.30
2022-11-12T08:24:39.568Z,8.73
2022-11-12T08:26:29.988Z,10.20
2022-11-12T08:28:20.352Z,8.60
2022-11-12T08:30:11.469Z,9.63
2022-11-12T08:32:01.824Z,7.50
2022-11-12T08:33:52.229Z,8.80
2022-11-12T08:35:42.733Z,7.70
2022-11-12T08:37:33.257Z,8.57
2022-11-12T08:39:23.316Z,7.93
2022-11-12T08:41:14.830Z,8.90
2022-11-12T08:43:07.083Z,9.87
2022-11-12T08:44:57.237Z,8.40
2022-11-12T08:46:47.754Z,9.23
2022-11-12T08:48:39.956Z,7.57
2022-11-12T08:50:30.668Z,10.13
2022-11-12T08:52:21.141Z,7.77
2022-11-12T08:54:11.355Z,7.67
2022-11-12T08:56:02.107Z,7.43
2022-11-12T08:57:52.222Z,7.00
2022-11-12T08:59:42.510Z,8.03
2022-11-12T09:01:32.937Z,9.80
2022-11-12T09:03:25.765Z,6.30
2022-11-12T09:05:16.453Z,9.40
2022-11-12T09:07:09.376Z,9.53
2022-11-12T09:09:00.200Z,10.80
2022-11-12T09:10:50.990Z,7.80
2022-11-12T09:12:41.794Z,7.97
2022-11-12T09:14:32.077Z,7.30
2022-11-12T09:16:24.065Z,9.10
2022-11-12T09:18:16.971Z,7.67
2022-11-12T09:20:07.636Z,7.20
2022-11-12T09:21:57.995Z,7.30
2022-11-12T09:23:48.473Z,13.50
2022-11-12T09:25:39.771Z,6.87
2022-11-12T09:27:30.487Z,8.70
2022-11-12T09:29:21.134Z,8.50
2022-11-12T09:31:11.768Z,7.07
2022-11-12T09:33:02.222Z,8.83
2022-11-12T09:34:52.419Z,7.60
2022-11-12T09:36:42.990Z,9.00
2022-11-12T09:38:33.595Z,7.97
2022-11-12T09:40:40.411Z,7.93
2022-11-12T09:42:30.981Z,7.43
2022-11-12T09:44:24.216Z,8.43
2022-11-12T09:46:29.302Z,9.07
2022-11-12T09:48:27.170Z,7.40
2022-11-12T09:50:20.618Z,8.23
2022-11-12T09:52:19.347Z,8.37
2022-11-12T09:54:25.712Z,6.60
2022-11-12T09:56:21.770Z,7.97
2022-11-12T09:58:13.361Z,8.73
2022-11-12T10:00:13.856Z,7.97
2022-11-12T10:02:35.811Z,7.90
2022-11-12T10:04:38.297Z,8.70
2022-11-12T10:06:47.917Z,8.47
2022-11-12T10:08:50.108Z,7.87
2022-11-12T10:11:02.120Z,10.57
2022-11-12T10:13:17.041Z,9.33
2022-11-12T10:15:44.660Z,8.33
2022-11-12T10:17:48.536Z,8.33
2022-11-12T10:19:49.564Z,8.33
2022-11-12T10:22:07.471Z,7.53
2022-11-12T10:23:58.683Z,7.77
2022-11-12T10:25:53.664Z,8.03
2022-11-12T10:27:44.853Z,6.83
2022-11-12T10:29:42.664Z,8.03
2022-11-12T10:31:32.760Z,7.97
2022-11-12T10:33:23.255Z,7.13
2022-11-12T10:35:17.142Z,6.70
2022-11-12T10:37:12.348Z,7.13
2022-11-12T10:39:03.160Z,7.10
2022-11-12T10:40:53.303Z,11.17
2022-11-12T10:43:16.508Z,6.10
2022-11-12T10:45:33.132Z,9.50
2022-11-12T10:47:30.981Z,9.13
2022-11-12T10:49:24.609Z,7.83
2022-11-12T10:51:27.996Z,9.37
2022-11-12T10:53:32.309Z,8.27
2022-11-12T10:55:32.081Z,8.13
2022-11-12T10:57:27.729Z,7.77
2022-11-12T10:59:24.132Z,7.80
2022-11-12T11:01:17.804Z,8.60
2022-11-12T11:03:25.955Z,7.40
2022-11-12T11:05:37.585Z,8.57
2022-11-12T11:07:28.175Z,8.63
2022-11-12T11:09:21.563Z,7.80
2022-11-12T11:11:24.826Z,7.40
2022-11-12T11:13:19.179Z,6.80
2022-11-12T11:15:20.811Z,7.20
2022-11-12T11:17:18.127Z,6.33
2022-11-12T11:19:09.639Z,8.73
2022-11-12T11:21:43.578Z,11.40
2022-11-12T11:23:42.553Z,15.37
2022-11-12T11:25:35.648Z,12.73
2022-11-12T11:27:40.920Z,7.23
2022-11-12T11:29:34.573Z,6.73
2022-11-12T11:31:45.616Z,6.43
2022-11-12T11:33:57.763Z,6.57
2022-11-12T11:36:37.975Z,8.70
2022-11-12T11:39:01.447Z,6.80
2022-11-12T11:40:57.171Z,14.60
2022-11-12T11:43:18.383Z,7.67
2022-11-12T11:45:21.218Z,8.03
2022-11-12T11:47:59.951Z,6.53
2022-11-12T11:50:08.647Z,6.50
2022-11-12T11:52:48.244Z,6.73
2022-11-12T11:54:56.086Z,6.00
2022-11-12T11:56:48.971Z,7.60
2022-11-12T11:58:49.624Z,7.23
2022-11-12T12:00:47.351Z,8.80
2022-11-12T12:02:56.808Z,9.83
2022-11-12T12:05:00.791Z,7.53
2022-11-12T12:07:36.988Z,8.00
2022-11-12T12:09:42.568Z,9.13
2022-11-12T12:11:40.084Z,11.27
2022-11-12T12:13:40.574Z,9.20
2022-11-12T12:16:01.746Z,19.50
2022-11-12T12:18:14.131Z,23.53
2022-11-12T12:20:22.152Z,10.33
2022-11-12T12:22:19.297Z,9.40
2022-11-12T12:24:23.738Z,10.63
2022-11-12T12:26:40.409Z,10.20
2022-11-12T12:28:42.337Z,13.43
2022-11-12T12:30:36.689Z,6.47
2022-11-12T12:32:40.060Z,10.50
2022-11-12T12:34:38.669Z,8.50
2022-11-12T12:36:37.518Z,6.80
2022-11-12T12:38:35.060Z,8.60
2022-11-12T12:40:33.953Z,9.33
2022-11-12T12:42:50.672Z,6.23
2022-11-12T12:45:07.768Z,8.67
2022-11-12T12:47:00.922Z,10.50
2022-11-12T12:48:53.892Z,6.83
2022-11-12T12:50:48.766Z,10.10
2022-11-12T12:53:02.102Z,7.87
2022-11-12T12:54:52.355Z,10.33
2022-11-12T12:56:45.457Z,8.13
2022-11-12T12:58:48.757Z,11.23
2022-11-12T13:00:40.931Z,6.83
2022-11-12T13:02:38.474Z,8.33
2022-11-12T13:04:51.091Z,7.53
2022-11-12T13:06:53.714Z,6.53
2022-11-12T13:08:44.109Z,7.83
2022-11-12T13:10:44.260Z,8.13
2022-11-12T13:13:12.407Z,8.43
2022-11-12T13:15:16.598Z,6.70
2022-11-12T13:17:10.757Z,7.63
2022-11-12T13:19:01.994Z,7.40
2022-11-12T13:21:16.380Z,7.20
2022-11-12T13:23:10.579Z,7.90
2022-11-12T13:25:16.766Z,7.37
2022-11-12T13:27:07.200Z,9.33
2022-11-12T13:29:28.822Z,25.97
2022-11-12T13:31:28.935Z,7.57
2022-11-12T13:33:27.103Z,9.37
2022-11-12T13:35:23.852Z,9.00
2022-11-12T13:37:22.646Z,8.50
2022-11-12T13:39:17.038Z,7.57
2022-11-12T13:41:41.435Z,6.93
2022-11-12T13:43:38.893Z,8.73
2022-11-12T13:45:29.293Z,7.50
2022-11-12T13:47:24.387Z,5.83
2022-11-12T13:49:16.982Z,5.80
2022-11-12T13:51:27.689Z,9.43
2022-11-12T13:53:23.675Z,8.67
2022-11-12T13:55:16.439Z,6.90
2022-11-12T13:57:26.942Z,7.63
2022-11-12T13:59:25.670Z,5.73
2022-11-12T14:01:21.868Z,5.17
2022-11-12T14:03:16.944Z,6.00
2022-11-12T14:05:16.705Z,8.53
2022-11-12T14:07:26.984Z,5.43
2022-11-12T14:10:05.230Z,6.53
2022-11-12T14:12:17.254Z,4.60
2022-11-12T14:14:36.489Z,5.00
2022-11-12T14:16:53.682Z,7.20
2022-11-12T14:19:17.069Z,4.47
2022-11-12T14:21:16.987Z,9.67
2022-11-12T14:23:21.536Z,5.97
2022-11-12T14:25:25.893Z,5.43
2022-11-12T14:27:33.878Z,4.83
2022-11-12T14:29:24.058Z,6.87
2022-11-12T14:31:15.450Z,3.90
2022-11-12T14:33:11.077Z,12.60
2022-11-12T14:35:16.189Z,5.03
2022-11-12T14:37:15.981Z,4.07
2022-11-12T14:39:07.170Z,3.97
2022-11-12T14:41:01.007Z,4.33
2022-11-12T14:42:52.322Z,5.37
2022-11-12T14:44:43.155Z,6.40
2022-11-12T14:46:46.798Z,4.40
2022-11-12T14:48:50.926Z,5.47
2022-11-12T14:50:45.306Z,3.70
2022-11-12T14:52:45.123Z,4.73
2022-11-12T14:54:42.428Z,4.93
2022-11-12T14:56:39.593Z,3.53
2022-11-12T14:58:31.754Z,5.30
2022-11-12T15:00:39.569Z,5.90
2022-11-12T15:02:48.904Z,15.00
2022-11-12T15:04:52.460Z,8.10
2022-11-12T15:06:54.717Z,7.10
2022-11-12T15:08:55.743Z,4.07
2022-11-12T15:10:46.557Z,6.87
2022-11-12T15:12:36.985Z,5.83
2022-11-12T15:14:27.516Z,5.50
2022-11-12T15:16:28.208Z,9.80
2022-11-12T15:18:22.831Z,27.20
2022-11-12T15:20:16.507Z,21.83
2022-11-12T15:22:16.644Z,7.40
2022-11-12T15:24:20.700Z,9.37
2022-11-12T15:26:15.815Z,5.30
2022-11-12T15:28:20.827Z,8.30
2022-11-12T15:30:31.673Z,9.37
2022-11-12T15:32:21.569Z,7.10
2022-11-12T15:34:29.939Z,8.77
2022-11-12T15:36:22.630Z,11.13
2022-11-12T15:38:25.876Z,9.03
2022-11-12T15:40:21.380Z,10.83
2022-11-12T15:42:18.449Z,14.33
2022-11-12T15:44:10.345Z,33.53
2022-11-12T15:46:01.164Z,31.13
2022-11-12T15:47:52.152Z,26.30
2022-11-12T15:49:50.637Z,22.20
2022-11-12T15:51:40.800Z,20.07
2022-11-12T15:53:31.140Z,22.73
2022-11-12T15:55:24.813Z,20.53
2022-11-12T15:57:24.665Z,26.10
2022-11-12T15:59:17.413Z,18.93
2022-11-12T16:01:07.838Z,19.20
2022-11-12T16:03:17.156Z,20.50
2022-11-12T16:05:16.168Z,18.10
2022-11-12T16:07:06.960Z,17.50
2022-11-12T16:08:57.361Z,16.03
2022-11-12T16:10:48.257Z,16.67
2022-11-12T16:12:38.829Z,16.43
2022-11-12T16:14:29.362Z,14.87
2022-11-12T16:16:19.842Z,16.50
2022-11-12T16:18:14.281Z,13.50
2022-11-12T16:20:16.513Z,12.63
2022-11-12T16:22:12.368Z,13.93
2022-11-12T16:24:02.498Z,12.83
2022-11-12T16:25:53.068Z,12.77
2022-11-12T16:27:44.218Z,11.80
2022-11-12T16:29:35.402Z,11.90
2022-11-12T16:31:25.570Z,10.30
2022-11-12T16:33:15.885Z,12.90
2022-11-12T16:35:06.389Z,10.40
2022-11-12T16:36:57.739Z,10.70
2022-11-12T16:38:47.878Z,10.40
2022-11-12T16:40:38.593Z,9.37
2022-11-12T16:42:28.696Z,9.23
2022-11-12T16:44:19.268Z,10.53
2022-11-12T16:46:24.643Z,11.50
2022-11-12T16:48:20.628Z,11.97
2022-11-12T16:50:12.526Z,13.47
2022-11-12T16:52:03.016Z,12.13
2022-11-12T16:53:53.238Z,14.37
2022-11-12T16:55:44.402Z,11.47
2022-11-12T16:57:37.958Z,11.00
2022-11-12T16:59:28.323Z,10.17
2022-11-12T17:01:33.532Z,8.93
2022-11-12T17:03:23.648Z,9.40
2022-11-12T17:05:17.377Z,10.63
2022-11-12T17:07:07.521Z,14.33
2022-11-12T17:08:57.859Z,13.23
2022-11-12T17:10:48.234Z,14.30
2022-11-12T17:12:38.555Z,12.87
2022-11-12T17:14:28.835Z,14.70
2022-11-12T17:16:19.171Z,13.83
2022-11-12T17:18:10.218Z,18.73
2022-11-12T17:20:00.354Z,18.10
2022-11-12T17:21:50.809Z,25.00
2022-11-12T17:23:44.541Z,24.63
2022-11-12T17:25:35.007Z,31.60
2022-11-12T17:27:25.419Z,36.43
2022-11-12T17:29:15.800Z,24.10
2022-11-12T17:31:21.392Z,27.77
2022-11-12T17:33:11.500Z,23.73
2022-11-12T17:35:01.643Z,22.90
2022-11-12T17:36:52.024Z,31.63
2022-11-12T17:38:42.639Z,33.20
2022-11-12T17:40:32.728Z,28.00
2022-11-12T17:42:23.012Z,27.23
2022-11-12T17:44:18.301Z,32.27
2022-11-12T17:46:09.706Z,28.40
2022-11-12T17:47:59.964Z,27.73
2022-11-12T17:49:52.133Z,28.37
2022-11-12T17:51:42.912Z,27.90
2022-11-12T17:53:33.164Z,30.03
2022-11-12T17:55:23.476Z,24.37
2022-11-12T17:57:13.827Z,28.70
2022-11-12T17:59:04.721Z,29.73
2022-11-12T18:00:55.417Z,25.10
2022-11-12T18:02:45.816Z,29.10
2022-11-12T18:04:36.310Z,33.50
2022-11-12T18:06:32.381Z,35.80
2022-11-12T18:08:22.509Z,33.33
2022-11-12T18:10:18.384Z,34.90
2022-11-12T18:12:10.081Z,38.87
2022-11-12T18:14:07.046Z,42.20
2022-11-12T18:15:57.244Z,39.73
2022-11-12T18:17:47.605Z,38.60
2022-11-12T18:19:37.889Z,42.87
2022-11-12T18:21:28.718Z,41.40
2022-11-12T18:23:18.784Z,37.10
2022-11-12T18:25:09.326Z,41.33
2022-11-12T18:26:59.798Z,48.33
2022-11-12T18:28:58.286Z,51.60
2022-11-12T18:30:48.894Z,56.63
2022-11-12T18:32:41.168Z,57.33
2022-11-12T18:34:34.786Z,58.73
2022-11-12T18:36:26.394Z,49.70
2022-11-12T18:38:16.427Z,50.00
2022-11-12T18:40:07.676Z,43.77
2022-11-12T18:41:57.926Z,46.63
2022-11-12T18:43:48.208Z,45.87
2022-11-12T18:45:39.221Z,43.33
2022-11-12T18:47:30.266Z,42.17
2022-11-12T18:49:20.719Z,43.77
2022-11-12T18:51:13.573Z,39.70
2022-11-12T18:53:03.744Z,36.60
2022-11-12T18:54:54.174Z,40.10
2022-11-12T18:56:44.519Z,37.97
2022-11-12T18:58:36.364Z,36.83
2022-11-12T19:00:26.778Z,33.37
2022-11-12T19:02:17.292Z,35.40
2022-11-12T19:04:10.833Z,41.50
2022-11-12T19:06:03.233Z,29.73
2022-11-12T19:07:53.732Z,33.50
2022-11-12T19:09:43.927Z,40.20
2022-11-12T19:11:36.841Z,32.23
2022-11-12T19:13:27.483Z,30.80
2022-11-12T19:15:20.618Z,29.43
2022-11-12T19:17:14.346Z,30.50
2022-11-12T19:19:04.731Z,31.17
2022-11-12T19:21:02.293Z,28.60
2022-11-12T19:22:53.970Z,33.63
2022-11-12T19:24:44.288Z,35.70
2022-11-12T19:26:36.948Z,30.57
2022-11-12T19:28:28.060Z,29.43
2022-11-12T19:30:18.763Z,26.10
2022-11-12T19:32:09.164Z,24.30
2022-11-12T19:33:59.715Z,21.87
2022-11-12T19:35:49.944Z,17.60
2022-11-12T19:37:39.979Z,19.80
2022-11-12T19:39:30.224Z,16.40
2022-11-12T19:41:20.572Z,15.53
2022-11-12T19:43:11.116Z,14.77
2022-11-12T19:45:02.672Z,10.77
2022-11-12T19:46:55.820Z,11.80
2022-11-12T19:48:46.374Z,11.10
2022-11-12T19:50:37.176Z,8.73
2022-11-12T19:52:27.488Z,8.70
2022-11-12T19:54:17.878Z,10.30
2022-11-12T19:56:08.252Z,9.80
2022-11-12T19:57:58.521Z,8.87
2022-11-12T19:59:48.752Z,8.40
2022-11-12T20:01:39.157Z,8.70
2022-11-12T20:03:30.244Z,6.10
2022-11-12T20:05:20.440Z,5.70
2022-11-12T20:07:10.944Z,6.40
2022-11-12T20:09:01.624Z,7.30
2022-11-12T20:10:51.836Z,6.90
2022-11-12T20:12:42.380Z,8.47
2022-11-12T20:14:32.749Z,6.23
2022-11-12T20:16:25.937Z,5.83
2022-11-12T20:18:16.696Z,7.10
2022-11-12T20:20:09.291Z,5.20
2022-11-12T20:21:59.625Z,6.90
2022-11-12T20:23:50.201Z,6.10
2022-11-12T20:25:40.637Z,6.70
2022-11-12T20:27:31.072Z,5.97
2022-11-12T20:29:21.521Z,5.90
2022-11-12T20:31:14.551Z,9.93
2022-11-12T20:33:04.997Z,10.23
2022-11-12T20:34:55.421Z,12.80
2022-11-12T20:36:45.768Z,8.40
2022-11-12T20:38:37.725Z,6.90
2022-11-12T20:40:27.773Z,8.70
2022-11-12T20:42:18.050Z,7.47
2022-11-12T20:44:08.578Z,7.33
2022-11-12T20:45:59.245Z,10.37
2022-11-12T20:47:49.546Z,7.50
2022-11-12T20:49:39.723Z,6.47
2022-11-12T20:51:30.217Z,8.67
2022-11-12T20:53:20.550Z,5.67
2022-11-12T20:55:10.876Z,5.43
2022-11-12T20:57:03.116Z,7.17
2022-11-12T20:58:53.776Z,6.90
2022-11-12T21:00:44.048Z,5.50
2022-11-12T21:02:37.058Z,6.63
2022-11-12T21:04:27.235Z,7.73
2022-11-12T21:06:21.019Z,7.57
2022-11-12T21:08:11.180Z,5.17
2022-11-12T21:10:01.848Z,6.40
2022-11-12T21:11:52.283Z,8.93
2022-11-12T21:13:42.967Z,5.37
2022-11-12T21:15:33.022Z,5.93
2022-11-12T21:17:23.306Z,10.40
2022-11-12T21:19:13.930Z,6.60
2022-11-12T21:21:10.066Z,6.10
2022-11-12T21:23:00.533Z,11.13
2022-11-12T21:24:50.906Z,8.80
2022-11-12T21:26:44.035Z,5.30
2022-11-12T21:28:36.895Z,5.67
2022-11-12T21:30:27.299Z,7.13
2022-11-12T21:32:17.654Z,7.17
2022-11-12T21:34:10.186Z,6.63
2022-11-12T21:36:00.691Z,6.37
2022-11-12T21:37:51.136Z,5.03
2022-11-12T21:39:41.434Z,5.70
2022-11-12T21:41:32.084Z,7.73
2022-11-12T21:43:22.614Z,8.17
2022-11-12T21:45:13.434Z,5.20
2022-11-12T21:47:03.811Z,5.80
2022-11-12T21:48:55.554Z,4.97
2022-11-12T21:50:45.674Z,5.40
2022-11-12T21:52:36.010Z,7.57
2022-11-12T21:54:26.343Z,7.67
2022-11-12T21:56:18.238Z,9.67
2022-11-12T21:58:08.722Z,6.83
2022-11-12T22:00:19.602Z,11.50
2022-11-12T22:02:11.360Z,8.60
2022-11-12T22:04:06.028Z,7.70
2022-11-12T22:05:56.187Z,6.73
2022-11-12T22:07:46.682Z,5.77
2022-11-12T22:09:37.033Z,7.13
2022-11-12T22:11:27.604Z,8.37
2022-11-12T22:13:26.990Z,8.13
2022-11-12T22:15:23.015Z,6.27
2022-11-12T22:17:14.715Z,11.30
2022-11-12T22:19:05.172Z,6.37
2022-11-12T22:21:06.763Z,7.03
2022-11-12T22:22:57.206Z,7.80
2022-11-12T22:24:47.863Z,9.17
2022-11-12T22:26:38.224Z,5.10
2022-11-12T22:28:28.595Z,10.73
2022-11-12T22:30:19.171Z,7.00
2022-11-12T22:32:09.419Z,31.43
2022-11-12T22:34:01.515Z,10.30
2022-11-12T22:35:51.610Z,5.93
2022-11-12T22:37:42.279Z,6.93
2022-11-12T22:39:32.559Z,6.97
2022-11-12T22:41:28.301Z,6.30
2022-11-12T22:43:18.590Z,6.53
2022-11-12T22:45:09.609Z,5.43
2022-11-12T22:46:59.631Z,5.27
2022-11-12T22:48:50.580Z,6.73
2022-11-12T22:50:40.897Z,5.33
2022-11-12T22:52:31.166Z,5.10
2022-11-12T22:54:21.555Z,6.10
2022-11-12T22:56:14.995Z,5.43
2022-11-12T22:58:05.403Z,8.03
2022-11-12T22:59:57.252Z,5.93
2022-11-12T23:01:47.379Z,6.10
2022-11-12T23:03:37.801Z,5.67
2022-11-12T23:05:28.213Z,7.27
2022-11-12T23:07:19.687Z,6.40
2022-11-12T23:09:15.198Z,8.80
2022-11-12T23:11:09.487Z,8.40
2022-11-12T23:12:59.783Z,11.23
2022-11-12T23:14:50.367Z,7.30
2022-11-12T23:16:40.480Z,12.43
2022-11-12T23:18:30.898Z,10.37
2022-11-12T23:20:21.240Z,7.33
2022-11-12T23:22:11.567Z,6.73
2022-11-12T23:24:01.878Z,6.20
2022-11-12T23:25:52.348Z,5.73
2022-11-12T23:27:42.727Z,6.40
2022-11-12T23:29:33.257Z,5.60
2022-11-12T23:31:26.859Z,11.40
2022-11-12T23:33:17.242Z,5.40
2022-11-12T23:35:08.049Z,6.30
2022-11-12T23:36:58.715Z,5.00
2022-11-12T23:38:49.028Z,5.60
2022-11-12T23:40:39.115Z,7.40
2022-11-12T23:42:29.599Z,5.20
2022-11-12T23:44:19.931Z,7.00
2022-11-12T23:46:11.415Z,6.33
2022-11-12T23:48:01.939Z,5.43
2022-11-12T23:49:52.371Z,5.40
2022-11-12T23:51:42.867Z,5.17
2022-11-12T23:53:34.628Z,7.97
2022-11-12T23:55:26.018Z,6.17
2022-11-12T23:57:17.565Z,5.30
2022-11-12T23:59:07.901Z,4.73
